KDUA/DUA METAR and TAF weather

Enter ICAO airport designator
Station Type Date Time Source
KDUA METAR 2022/06/29 00:35 UTC NOAA

KDUA 290035Z AUTO 09004KT 10SM CLR 30/11 A3013 RMK AO2


Station Type Date Time Source
KDUA Decoded METAR 2022/06/29 00:35 UTC NOAA

Durant, Eaker Field Airport, OK, United States (KDUA) 33-56-32N 096-23-40W
Jun 28, 2022 - 08:35 PM EDT / 2022.06.29 0035 UTC
Wind: from the E (090 degrees) at 5 MPH (4 KT):0
Visibility: 10 mile(s):0
Sky conditions: clear
Temperature: 86 F (30 C)
Dew Point: 51 F (11 C)
Relative Humidity: 30%
Pressure (altimeter): 30.13 in. Hg (1020 hPa)
ob: KDUA 290035Z AUTO 09004KT 10SM CLR 30/11 A3013 RMK AO2
cycle: 0

Station Type Date Time Source
KDUA TAF UTC NOAA

Error!

Example: see airport list